createdAt,value
2019-04-22T00:02:13.250Z,2.40
2019-04-22T00:04:56.288Z,3.40
2019-04-22T00:07:44.246Z,2.27
2019-04-22T00:10:11.867Z,2.47
2019-04-22T00:12:47.252Z,2.60
2019-04-22T00:15:15.241Z,2.73
2019-04-22T00:18:03.307Z,2.50
2019-04-22T00:20:22.991Z,2.77
2019-04-22T00:22:51.925Z,2.57
2019-04-22T00:25:34.503Z,2.20
2019-04-22T00:28:02.432Z,2.70
2019-04-22T00:30:28.411Z,3.13
2019-04-22T00:33:24.479Z,2.40
2019-04-22T00:35:54.501Z,2.30
2019-04-22T00:38:35.691Z,2.50
2019-04-22T00:41:01.099Z,2.50
2019-04-22T00:43:32.480Z,2.43
2019-04-22T00:46:09.695Z,3.00
2019-04-22T00:49:29.593Z,2.70
2019-04-22T00:51:12.413Z,2.80
2019-04-22T00:53:39.219Z,3.17
2019-04-22T00:58:45.412Z,3.27
2019-04-22T01:01:21.555Z,3.07
2019-04-22T01:03:58.393Z,3.10
2019-04-22T01:08:57.949Z,2.73
2019-04-22T01:11:29.891Z,2.40
2019-04-22T01:14:01.369Z,2.60
2019-04-22T01:16:39.277Z,2.53
2019-04-22T01:19:06.556Z,2.30
2019-04-22T01:21:42.172Z,2.27
2019-04-22T01:24:12.127Z,2.93
2019-04-22T01:26:41.797Z,2.60
2019-04-22T01:29:11.061Z,3.17
2019-04-22T01:31:34.051Z,2.90
2019-04-22T01:34:16.168Z,2.10
2019-04-22T01:36:52.878Z,2.23
2019-04-22T01:39:40.285Z,2.97
2019-04-22T01:42:16.832Z,2.27
2019-04-22T01:44:38.643Z,2.70
2019-04-22T01:47:11.442Z,2.97
2019-04-22T01:49:44.154Z,2.27
2019-04-22T01:52:17.863Z,2.73
2019-04-22T01:54:52.712Z,2.60
2019-04-22T01:57:19.075Z,2.80
2019-04-22T01:59:45.920Z,2.70
2019-04-22T02:02:43.492Z,2.27
2019-04-22T02:04:59.960Z,2.80
2019-04-22T02:07:32.377Z,2.60
2019-04-22T02:10:03.969Z,2.37
2019-04-22T02:15:09.254Z,2.17
2019-04-22T02:17:46.947Z,2.37
2019-04-22T02:20:23.100Z,2.30
2019-04-22T02:28:39.993Z,2.30
2019-04-22T02:31:25.934Z,2.83
2019-04-22T02:41:23.099Z,2.43
2019-04-22T02:44:04.036Z,2.70
2019-04-22T02:51:22.680Z,2.87
2019-04-22T02:56:31.452Z,2.73
2019-04-22T02:59:09.545Z,2.50
2019-04-22T03:01:39.741Z,2.60
2019-04-22T03:04:20.530Z,2.70
2019-04-22T03:09:14.462Z,2.53
2019-04-22T03:11:48.781Z,2.50
2019-04-22T03:14:13.436Z,3.10
2019-04-22T03:16:48.807Z,3.27
2019-04-22T03:19:36.663Z,2.90
2019-04-22T03:21:57.657Z,3.00
2019-04-22T03:24:25.828Z,2.47
2019-04-22T03:27:02.945Z,2.37
2019-04-22T03:30:33.273Z,3.17
2019-04-22T03:37:49.475Z,2.47
2019-04-22T04:08:15.110Z,3.47
2019-04-22T04:10:42.076Z,2.80
2019-04-22T04:13:30.360Z,3.60
2019-04-22T04:15:40.650Z,3.70
2019-04-22T04:18:30.332Z,4.07
2019-04-22T04:21:06.127Z,3.73
2019-04-22T04:23:32.453Z,3.40
2019-04-22T04:26:05.174Z,3.50
2019-04-22T04:31:02.667Z,3.63
2019-04-22T04:33:54.043Z,3.63
2019-04-22T04:38:46.438Z,3.23
2019-04-22T04:41:19.931Z,3.80
2019-04-22T04:43:52.875Z,4.80
2019-04-22T04:46:24.806Z,3.20
2019-04-22T04:51:23.979Z,3.50
2019-04-22T04:53:58.300Z,3.37
2019-04-22T04:56:33.986Z,3.87
2019-04-22T05:01:30.931Z,3.37
2019-04-22T05:04:11.326Z,3.07
2019-04-22T05:11:47.423Z,3.03
2019-04-22T05:14:09.533Z,3.50
2019-04-22T05:19:15.929Z,4.43
2019-04-22T05:21:50.729Z,3.60
2019-04-22T05:26:52.792Z,3.87
2019-04-22T05:29:19.474Z,4.60
2019-04-22T05:34:21.513Z,3.80
2019-04-22T05:36:57.137Z,3.73
2019-04-22T05:39:21.517Z,3.97
2019-04-22T05:42:07.502Z,4.07
2019-04-22T05:44:39.560Z,3.87
2019-04-22T05:47:08.116Z,3.37
2019-04-22T05:49:35.020Z,4.43
2019-04-22T05:52:12.570Z,3.47
2019-04-22T05:54:42.769Z,3.37
2019-04-22T05:57:18.020Z,3.73
2019-04-22T05:59:56.613Z,3.77
2019-04-22T06:02:36.047Z,3.43
2019-04-22T06:04:54.960Z,3.60
2019-04-22T06:07:19.704Z,3.50
2019-04-22T06:10:02.995Z,4.20
2019-04-22T06:12:23.459Z,3.70
2019-04-22T06:15:01.301Z,3.17
2019-04-22T06:17:38.974Z,3.73
2019-04-22T06:20:02.177Z,4.10
2019-04-22T06:22:43.321Z,4.13
2019-04-22T06:27:41.318Z,3.67
2019-04-22T06:30:15.665Z,3.33
2019-04-22T06:32:46.941Z,3.97
2019-04-22T06:35:39.049Z,3.60
2019-04-22T06:38:09.739Z,3.77
2019-04-22T06:40:28.485Z,4.50
2019-04-22T06:42:57.903Z,4.10
2019-04-22T06:45:32.373Z,3.97
2019-04-22T06:50:39.645Z,3.20
2019-04-22T06:53:04.481Z,3.40
2019-04-22T06:55:43.532Z,3.30
2019-04-22T06:58:10.174Z,3.57
2019-04-22T07:00:43.103Z,3.30
2019-04-22T07:03:39.875Z,3.37
2019-04-22T07:05:50.116Z,3.53
2019-04-22T07:08:39.427Z,3.50
2019-04-22T07:13:42.910Z,3.33
2019-04-22T07:18:31.220Z,3.30
2019-04-22T07:21:01.391Z,3.63
2019-04-22T07:23:45.724Z,3.20
2019-04-22T07:26:04.268Z,3.20
2019-04-22T07:28:29.423Z,3.60
2019-04-22T07:31:12.983Z,3.20
2019-04-22T07:36:44.470Z,3.40
2019-04-22T07:38:42.813Z,3.63
2019-04-22T07:41:24.839Z,3.63
2019-04-22T07:44:12.011Z,3.00
2019-04-22T07:46:27.955Z,3.20
2019-04-22T07:49:06.549Z,2.90
2019-04-22T07:51:32.894Z,3.23
2019-04-22T07:54:03.377Z,3.27
2019-04-22T07:56:54.975Z,3.77
2019-04-22T07:59:09.494Z,3.20
2019-04-22T08:01:39.795Z,2.83
2019-04-22T08:04:21.281Z,3.43
2019-04-22T08:06:46.089Z,3.63
2019-04-22T08:09:19.637Z,2.67
2019-04-22T08:11:51.212Z,3.60
2019-04-22T08:14:27.054Z,2.90
2019-04-22T08:17:01.635Z,3.10
2019-04-22T08:21:59.990Z,3.00
2019-04-22T08:24:35.938Z,3.27
2019-04-22T08:26:59.353Z,3.10
2019-04-22T08:29:46.075Z,3.10
2019-04-22T08:32:05.166Z,2.90
2019-04-22T08:34:40.420Z,2.90
2019-04-22T08:39:40.600Z,3.77
2019-04-22T08:42:23.556Z,3.10
2019-04-22T08:47:26.236Z,3.43
2019-04-22T08:49:59.632Z,2.77
2019-04-22T08:52:26.118Z,3.10
2019-04-22T08:54:57.312Z,3.23
2019-04-22T08:57:40.794Z,3.20
2019-04-22T08:59:59.031Z,3.07
2019-04-22T09:02:34.545Z,3.07
2019-04-22T09:05:10.656Z,2.87
2019-04-22T09:07:36.826Z,2.90
2019-04-22T09:10:14.880Z,2.80
2019-04-22T09:12:51.739Z,2.80
2019-04-22T09:15:16.560Z,2.67
2019-04-22T09:17:47.811Z,3.03
2019-04-22T09:20:32.519Z,2.67
2019-04-22T09:22:53.908Z,2.97
2019-04-22T09:25:26.905Z,2.43
2019-04-22T09:28:10.541Z,3.30
2019-04-22T09:33:06.733Z,3.20
2019-04-22T09:38:23.406Z,3.20
2019-04-22T09:40:35.208Z,2.80
2019-04-22T09:43:09.926Z,2.63
2019-04-22T09:45:43.903Z,3.40
2019-04-22T09:48:18.102Z,2.83
2019-04-22T09:53:20.178Z,3.03
2019-04-22T09:55:51.616Z,2.90
2019-04-22T09:58:23.311Z,2.67
2019-04-22T10:01:25.860Z,3.00
2019-04-22T10:06:27.815Z,2.90
2019-04-22T10:09:13.032Z,2.60
2019-04-22T10:14:12.336Z,3.10
2019-04-22T10:19:04.349Z,3.10
2019-04-22T10:21:40.663Z,3.23
2019-04-22T10:24:09.103Z,2.90
2019-04-22T10:26:46.890Z,2.97
2019-04-22T10:29:30.390Z,2.80
2019-04-22T10:31:46.244Z,3.00
2019-04-22T10:34:05.593Z,3.07
2019-04-22T10:36:25.637Z,3.10
2019-04-22T10:38:56.274Z,3.03
2019-04-22T10:41:28.327Z,3.13
2019-04-22T10:43:59.397Z,3.20
2019-04-22T10:46:30.515Z,2.60
2019-04-22T10:49:01.986Z,3.03
2019-04-22T10:51:32.814Z,2.83
2019-04-22T10:54:03.411Z,2.87
2019-04-22T10:56:34.859Z,2.33
2019-04-22T10:59:06.804Z,2.63
2019-04-22T11:01:38.655Z,2.40
2019-04-22T11:04:09.358Z,2.80
2019-04-22T11:06:50.324Z,2.70
2019-04-22T11:09:12.559Z,2.90
2019-04-22T11:11:52.080Z,2.40
2019-04-22T11:14:16.842Z,2.90
2019-04-22T11:16:47.756Z,2.57
2019-04-22T11:19:18.087Z,3.03
2019-04-22T11:22:01.024Z,2.27
2019-04-22T11:24:23.052Z,2.63
2019-04-22T11:26:54.985Z,2.90
2019-04-22T11:29:25.697Z,2.57
2019-04-22T11:31:56.683Z,2.43
2019-04-22T11:34:28.979Z,2.63
2019-04-22T11:37:00.925Z,2.60
2019-04-22T11:39:36.480Z,2.40
2019-04-22T11:42:05.134Z,2.60
2019-04-22T11:44:37.107Z,2.60
2019-04-22T11:47:07.828Z,2.70
2019-04-22T11:49:39.636Z,2.77
2019-04-22T11:52:12.823Z,2.70
2019-04-22T11:54:43.249Z,2.60
2019-04-22T11:57:15.148Z,2.70
2019-04-22T11:59:46.944Z,2.73
2019-04-22T12:02:21.974Z,2.67
2019-04-22T12:04:53.653Z,2.20
2019-04-22T12:07:24.599Z,2.70
2019-04-22T12:09:55.588Z,2.73
2019-04-22T12:12:27.724Z,2.30
2019-04-22T12:14:58.696Z,2.53
2019-04-22T12:17:29.957Z,2.33
2019-04-22T12:20:03.313Z,2.47
2019-04-22T12:22:35.465Z,3.20
2019-04-22T12:25:08.125Z,2.70
2019-04-22T12:27:41.039Z,2.70
2019-04-22T12:30:12.482Z,3.40
2019-04-22T12:32:43.597Z,3.00
2019-04-22T12:35:17.643Z,2.23
2019-04-22T12:37:53.933Z,3.00
2019-04-22T12:40:34.199Z,3.13
2019-04-22T12:42:55.325Z,2.70
2019-04-22T12:45:26.680Z,3.60
2019-04-22T12:47:58.327Z,2.93
2019-04-22T12:50:33.716Z,2.87
2019-04-22T12:53:08.400Z,2.90
2019-04-22T12:55:34.296Z,3.10
2019-04-22T12:58:05.497Z,2.80
2019-04-22T13:00:36.368Z,2.90
2019-04-22T13:03:07.353Z,2.80
2019-04-22T13:05:38.067Z,2.57
2019-04-22T13:08:09.726Z,2.97
2019-04-22T13:10:51.600Z,2.60
2019-04-22T13:13:15.313Z,2.90
2019-04-22T13:15:46.809Z,2.60
2019-04-22T13:18:27.672Z,2.30
2019-04-22T13:20:50.604Z,2.93
2019-04-22T13:23:22.166Z,2.30
2019-04-22T13:25:52.823Z,2.80
2019-04-22T13:28:25.103Z,3.10
2019-04-22T13:30:58.433Z,2.83
2019-04-22T13:33:28.680Z,2.50
2019-04-22T13:35:59.667Z,2.80
2019-04-22T13:38:31.176Z,2.50
2019-04-22T13:41:16.430Z,2.73
2019-04-22T13:43:34.713Z,3.10
2019-04-22T13:46:06.078Z,2.63
2019-04-22T13:49:03.830Z,2.40
2019-04-22T13:51:48.734Z,2.90
2019-04-22T13:54:42.404Z,3.20
2019-04-22T13:56:30.403Z,2.50
2019-04-22T13:58:58.492Z,2.13
2019-04-22T14:01:22.756Z,2.63
2019-04-22T14:04:02.571Z,2.50
2019-04-22T14:06:34.558Z,1.80
2019-04-22T14:09:07.625Z,2.90
2019-04-22T14:11:46.171Z,2.87
2019-04-22T14:14:10.921Z,2.60
2019-04-22T14:16:44.812Z,3.03
2019-04-22T14:19:16.059Z,2.80
2019-04-22T14:21:47.491Z,2.70
2019-04-22T14:24:19.630Z,2.73
2019-04-22T14:27:03.587Z,3.10
2019-04-22T14:29:22.254Z,2.97
2019-04-22T14:32:04.240Z,2.33
2019-04-22T14:34:26.595Z,2.63
2019-04-22T14:36:59.301Z,2.43
2019-04-22T14:39:30.350Z,2.30
2019-04-22T14:42:27.116Z,2.57
2019-04-22T14:47:45.058Z,2.53
2019-04-22T14:50:02.727Z,3.10
2019-04-22T14:52:36.032Z,2.57
2019-04-22T14:54:54.400Z,2.47
2019-04-22T14:57:15.083Z,2.50
2019-04-22T14:59:48.154Z,2.33
2019-04-22T15:02:19.634Z,2.83
2019-04-22T15:04:51.932Z,2.43
2019-04-22T15:07:23.271Z,2.30
2019-04-22T15:09:53.880Z,2.63
2019-04-22T15:12:33.669Z,2.63
2019-04-22T15:14:59.566Z,2.30
2019-04-22T15:17:36.821Z,2.57
2019-04-22T15:20:19.974Z,2.30
2019-04-22T15:22:50.867Z,2.50
2019-04-22T15:25:22.768Z,2.40
2019-04-22T15:27:53.529Z,2.67
2019-04-22T15:30:25.531Z,2.47
2019-04-22T15:32:57.226Z,1.63
2019-04-22T15:35:29.184Z,2.63
2019-04-22T15:38:01.391Z,2.50
2019-04-22T15:40:32.056Z,2.30
2019-04-22T15:43:02.791Z,2.10
2019-04-22T15:45:34.925Z,2.30
2019-04-22T15:48:06.149Z,2.37
2019-04-22T15:50:37.856Z,2.37
2019-04-22T15:53:09.818Z,2.10
2019-04-22T15:55:40.945Z,2.23
2019-04-22T15:58:12.060Z,2.50
2019-04-22T16:00:55.443Z,1.80
2019-04-22T16:03:16.357Z,2.13
2019-04-22T16:05:48.024Z,2.77
2019-04-22T16:08:19.169Z,1.97
2019-04-22T16:10:49.847Z,2.10
2019-04-22T16:13:24.790Z,1.80
2019-04-22T16:15:54.269Z,1.70
2019-04-22T16:18:26.325Z,2.20
2019-04-22T16:20:59.781Z,1.77
2019-04-22T16:23:50.160Z,2.10
2019-04-22T16:26:58.289Z,1.87
2019-04-22T16:29:29.637Z,2.00
2019-04-22T16:32:01.198Z,2.00
2019-04-22T16:34:32.141Z,1.73
2019-04-22T16:37:02.954Z,2.30
2019-04-22T16:39:33.561Z,1.73
2019-04-22T16:42:04.763Z,1.83
2019-04-22T16:44:36.541Z,1.80
2019-04-22T16:47:08.030Z,1.70
2019-04-22T16:49:39.292Z,2.00
2019-04-22T16:52:10.135Z,2.20
2019-04-22T16:54:42.071Z,1.90
2019-04-22T16:57:12.793Z,2.00
2019-04-22T16:59:44.568Z,1.90
2019-04-22T17:02:30.731Z,1.87
2019-04-22T17:05:09.477Z,1.70
2019-04-22T17:07:40.612Z,1.80
2019-04-22T17:10:13.657Z,2.10
2019-04-22T17:12:53.944Z,1.80
2019-04-22T17:15:18.558Z,2.33
2019-04-22T17:17:49.484Z,2.00
2019-04-22T17:20:20.946Z,1.70
2019-04-22T17:22:55.805Z,1.70
2019-04-22T17:25:27.524Z,1.90
2019-04-22T17:27:57.620Z,2.67
2019-04-22T17:30:29.170Z,2.13
2019-04-22T17:33:00.773Z,1.90
2019-04-22T17:35:31.599Z,2.30
2019-04-22T17:38:14.290Z,1.87
2019-04-22T17:40:52.312Z,1.97
2019-04-22T17:43:36.178Z,1.83
2019-04-22T17:46:03.118Z,1.73
2019-04-22T17:48:52.966Z,1.53
2019-04-22T17:51:39.354Z,2.07
2019-04-22T17:53:58.050Z,2.07
2019-04-22T17:56:30.779Z,1.80
2019-04-22T17:59:02.445Z,1.90
2019-04-22T18:01:35.563Z,1.60
2019-04-22T18:03:52.838Z,1.70
2019-04-22T18:06:44.048Z,2.10
2019-04-22T18:09:07.547Z,2.40
2019-04-22T18:11:51.262Z,2.23
2019-04-22T18:14:34.671Z,1.80
2019-04-22T18:16:48.659Z,1.97
2019-04-22T18:19:21.049Z,1.67
2019-04-22T18:21:50.470Z,1.90
2019-04-22T18:24:12.993Z,1.97
2019-04-22T18:26:55.433Z,1.80
2019-04-22T18:29:31.574Z,2.00
2019-04-22T18:31:50.172Z,2.27
2019-04-22T18:34:25.544Z,2.00
2019-04-22T18:37:02.680Z,2.20
2019-04-22T18:39:44.310Z,2.10
2019-04-22T18:42:07.534Z,2.40
2019-04-22T18:44:46.119Z,1.80
2019-04-22T18:47:13.184Z,2.00
2019-04-22T18:49:42.883Z,1.93
2019-04-22T18:52:40.196Z,1.83
2019-04-22T18:55:16.373Z,2.30
2019-04-22T18:58:04.299Z,1.90
2019-04-22T19:00:23.458Z,2.43
2019-04-22T19:03:03.032Z,2.10
2019-04-22T19:05:46.823Z,2.00
2019-04-22T19:08:22.845Z,2.10
2019-04-22T19:13:54.456Z,2.30
2019-04-22T19:16:15.914Z,2.33
2019-04-22T19:18:50.439Z,2.10
2019-04-22T19:21:08.051Z,2.17
2019-04-22T19:23:31.997Z,2.03
2019-04-22T19:26:16.848Z,2.20
2019-04-22T19:28:41.868Z,1.80
2019-04-22T19:31:17.393Z,1.90
2019-04-22T19:33:46.475Z,1.70
2019-04-22T19:36:32.275Z,1.97
2019-04-22T19:38:48.628Z,1.90
2019-04-22T19:41:24.461Z,2.53
2019-04-22T19:43:57.673Z,2.20
2019-04-22T19:46:22.552Z,1.93
2019-04-22T19:49:05.129Z,2.10
2019-04-22T19:51:44.105Z,2.20
2019-04-22T19:54:04.239Z,2.00
2019-04-22T19:56:32.547Z,2.10
2019-04-22T19:59:08.774Z,2.03
2019-04-22T20:02:07.342Z,2.43
2019-04-22T20:05:06.578Z,2.33
2019-04-22T20:07:40.622Z,2.30
2019-04-22T20:10:19.633Z,2.57
2019-04-22T20:12:48.681Z,2.30
2019-04-22T20:15:18.652Z,2.17
2019-04-22T20:18:19.210Z,2.10
2019-04-22T20:20:31.714Z,2.53
2019-04-22T20:22:57.497Z,2.50
2019-04-22T20:25:28.373Z,2.40
2019-04-22T20:28:06.187Z,2.50
2019-04-22T20:30:39.883Z,2.13
2019-04-22T20:33:05.370Z,2.77
2019-04-22T20:35:43.738Z,2.27
2019-04-22T20:38:16.837Z,2.53
2019-04-22T20:40:42.601Z,2.40
2019-04-22T20:43:26.808Z,2.57
2019-04-22T20:45:52.272Z,2.80
2019-04-22T20:48:08.976Z,2.20
2019-04-22T20:50:52.998Z,2.20
2019-04-22T20:53:31.222Z,2.43
2019-04-22T20:56:00.580Z,2.83
2019-04-22T20:58:33.079Z,3.07
2019-04-22T21:00:55.745Z,3.10
2019-04-22T21:03:26.149Z,2.60
2019-04-22T21:06:00.834Z,3.03
2019-04-22T21:08:44.794Z,2.60
2019-04-22T21:11:12.713Z,2.87
2019-04-22T21:13:46.686Z,2.50
2019-04-22T21:16:18.442Z,2.60
2019-04-22T21:18:44.721Z,2.83
2019-04-22T21:21:23.957Z,2.77
2019-04-22T21:23:47.795Z,2.67
2019-04-22T21:26:24.257Z,2.80
2019-04-22T21:28:53.476Z,2.30
2019-04-22T21:31:33.950Z,3.13
2019-04-22T21:33:59.467Z,2.13
2019-04-22T21:36:35.588Z,2.63
2019-04-22T21:39:05.295Z,3.13
2019-04-22T21:41:36.871Z,2.50
2019-04-22T21:44:12.440Z,2.63
2019-04-22T21:46:42.438Z,2.70
2019-04-22T21:49:18.959Z,2.77
2019-04-22T21:51:49.651Z,2.47
2019-04-22T21:54:22.477Z,2.63
2019-04-22T21:57:16.923Z,2.73
2019-04-22T21:59:34.599Z,2.40
2019-04-22T22:02:16.170Z,2.60
2019-04-22T22:04:44.510Z,2.70
2019-04-22T22:07:07.622Z,2.43
2019-04-22T22:09:53.815Z,2.23
2019-04-22T22:12:26.392Z,2.30
2019-04-22T22:15:00.532Z,2.90
2019-04-22T22:17:28.481Z,2.33
2019-04-22T22:19:58.584Z,2.27
2019-04-22T22:22:45.516Z,3.40
2019-04-22T22:25:11.134Z,2.70
2019-04-22T22:27:37.421Z,2.30
2019-04-22T22:30:33.525Z,2.90
2019-04-22T22:32:43.752Z,2.57
2019-04-22T22:35:16.782Z,3.30
2019-04-22T22:37:44.464Z,2.77
2019-04-22T22:40:07.492Z,2.70
2019-04-22T22:42:38.157Z,3.10
2019-04-22T22:45:13.907Z,2.43
2019-04-22T22:47:54.010Z,2.90
2019-04-22T22:50:27.463Z,2.77
2019-04-22T22:55:37.401Z,2.67
2019-04-22T22:58:14.372Z,2.80
2019-04-22T23:00:35.636Z,2.47
2019-04-22T23:05:55.383Z,2.40
2019-04-22T23:08:20.019Z,2.60
2019-04-22T23:10:55.925Z,2.93
2019-04-22T23:13:25.837Z,2.70
2019-04-22T23:15:46.593Z,2.70
2019-04-22T23:18:05.786Z,2.70
2019-04-22T23:20:41.789Z,3.13
2019-04-22T23:23:25.739Z,3.10
2019-04-22T23:26:02.675Z,2.97
2019-04-22T23:28:45.979Z,2.77
2019-04-22T23:31:37.634Z,2.73
2019-04-22T23:34:26.542Z,2.73
2019-04-22T23:37:24.508Z,2.63
2019-04-22T23:40:06.719Z,2.40
2019-04-22T23:42:27.233Z,3.00
2019-04-22T23:45:03.617Z,2.53
2019-04-22T23:47:32.427Z,3.13
2019-04-22T23:50:09.145Z,2.50
2019-04-22T23:52:54.591Z,3.07
2019-04-22T23:55:20.533Z,2.97
2019-04-22T23:57:58.475Z,2.60
